sensor_id;sensor_type;location;lat;lon;timestamp;temperature;humidity
3232;DHT22;1628;48.884;9.210;2022-10-26T04:01:01;13.50;99.90
3232;DHT22;1628;48.884;9.210;2022-10-26T04:03:28;13.50;99.90
3232;DHT22;1628;48.884;9.210;2022-10-26T04:05:55;13.40;99.90
3232;DHT22;1628;48.884;9.210;2022-10-26T04:08:22;13.40;99.90
3232;DHT22;1628;48.884;9.210;2022-10-26T04:10:49;13.40;99.90
3232;DHT22;1628;48.884;9.210;2022-10-26T04:13:15;13.40;99.90
3232;DHT22;1628;48.884;9.210;2022-10-26T04:15:42;13.40;99.90
3232;DHT22;1628;48.884;9.210;2022-10-26T04:18:10;13.40;99.90
3232;DHT22;1628;48.884;9.210;2022-10-26T04:20:38;13.40;99.90
3232;DHT22;1628;48.884;9.210;2022-10-26T04:23:08;13.40;99.90
3232;DHT22;1628;48.884;9.210;2022-10-26T04:25:36;13.50;99.90
3232;DHT22;1628;48.884;9.210;2022-10-26T04:28:04;13.50;99.90
3232;DHT22;1628;48.884;9.210;2022-10-26T04:30:31;13.60;99.90
3232;DHT22;1628;48.884;9.210;2022-10-26T04:32:58;13.60;99.90
3232;DHT22;1628;48.884;9.210;2022-10-26T04:35:27;13.70;99.90
3232;DHT22;1628;48.884;9.210;2022-10-26T04:37:56;13.70;99.90
3232;DHT22;1628;48.884;9.210;2022-10-26T04:40:24;13.80;99.90
3232;DHT22;1628;48.884;9.210;2022-10-26T04:42:51;13.80;99.90
3232;DHT22;1628;48.884;9.210;2022-10-26T04:45:17;13.90;99.90
3232;DHT22;1628;48.884;9.210;2022-10-26T04:47:44;13.90;99.90
3232;DHT22;1628;48.884;9.210;2022-10-26T04:50:11;13.90;99.90
3232;DHT22;1628;48.884;9.210;2022-10-26T04:52:40;13.80;99.90
3232;DHT22;1628;48.884;9.210;2022-10-26T04:55:07;13.80;99.90
3232;DHT22;1628;48.884;9.210;2022-10-26T04:57:34;13.70;99.90
3232;DHT22;1628;48.884;9.210;2022-10-26T05:00:03;13.70;99.90
3232;DHT22;1628;48.884;9.210;2022-10-26T05:02:30;13.70;99.90
3232;DHT22;1628;48.884;9.210;2022-10-26T05:04:57;13.70;99.90
3232;DHT22;1628;48.884;9.210;2022-10-26T05:07:23;13.70;99.90
3232;DHT22;1628;48.884;9.210;2022-10-26T05:09:51;13.70;99.90
3232;DHT22;1628;48.884;9.210;2022-10-26T05:12:18;13.70;99.90
3232;DHT22;1628;48.884;9.210;2022-10-26T05:14:45;13.70;99.90
3232;DHT22;1628;48.884;9.210;2022-10-26T05:17:11;13.70;99.90
3232;DHT22;1628;48.884;9.210;2022-10-26T05:19:38;13.70;99.90
3232;DHT22;1628;48.884;9.210;2022-10-26T05:22:05;13.70;99.90
3232;DHT22;1628;48.884;9.210;2022-10-26T05:24:32;13.70;99.90
3232;DHT22;1628;48.884;9.210;2022-10-26T05:27:00;13.70;99.90
3232;DHT22;1628;48.884;9.210;2022-10-26T05:29:26;13.70;99.90
3232;DHT22;1628;48.884;9.210;2022-10-26T05:31:53;13.70;99.90
3232;DHT22;1628;48.884;9.210;2022-10-26T05:34:19;13.80;99.90
3232;DHT22;1628;48.884;9.210;2022-10-26T05:36:46;13.70;99.90
3232;DHT22;1628;48.884;9.210;2022-10-26T05:39:13;13.80;99.90
3232;DHT22;1628;48.884;9.210;2022-10-26T05:41:39;13.80;99.90
3232;DHT22;1628;48.884;9.210;2022-10-26T05:44:07;13.80;99.90
3232;DHT22;1628;48.884;9.210;2022-10-26T05:46:34;13.80;99.90
3232;DHT22;1628;48.884;9.210;2022-10-26T05:49:00;13.90;99.90
3232;DHT22;1628;48.884;9.210;2022-10-26T05:51:27;13.90;99.90
3232;DHT22;1628;48.884;9.210;2022-10-26T05:53:54;14.00;99.90
3232;DHT22;1628;48.884;9.210;2022-10-26T05:56:34;14.00;99.90
3232;DHT22;1628;48.884;9.210;2022-10-26T05:59:02;14.00;99.90
3232;DHT22;1628;48.884;9.210;2022-10-26T06:01:37;14.00;99.90
3232;DHT22;1628;48.884;9.210;2022-10-26T06:04:14;14.00;99.90
3232;DHT22;1628;48.884;9.210;2022-10-26T06:06:47;14.10;99.90
3232;DHT22;1628;48.884;9.210;2022-10-26T06:09:16;14.10;99.90
3232;DHT22;1628;48.884;9.210;2022-10-26T06:11:43;14.10;99.90
3232;DHT22;1628;48.884;9.210;2022-10-26T06:14:10;14.10;99.90
3232;DHT22;1628;48.884;9.210;2022-10-26T06:16:48;14.20;99.90
3232;DHT22;1628;48.884;9.210;2022-10-26T06:19:27;14.30;99.90
3232;DHT22;1628;48.884;9.210;2022-10-26T06:22:08;14.30;99.90
3232;DHT22;1628;48.884;9.210;2022-10-26T06:24:42;14.40;99.90
3232;DHT22;1628;48.884;9.210;2022-10-26T06:27:20;14.50;99.90
3232;DHT22;1628;48.884;9.210;2022-10-26T06:29:54;14.50;99.90
3232;DHT22;1628;48.884;9.210;2022-10-26T06:32:24;14.60;99.90
3232;DHT22;1628;48.884;9.210;2022-10-26T06:34:54;14.60;99.90
3232;DHT22;1628;48.884;9.210;2022-10-26T06:37:25;14.60;99.90
3232;DHT22;1628;48.884;9.210;2022-10-26T06:39:54;14.50;99.90
3232;DHT22;1628;48.884;9.210;2022-10-26T06:42:22;14.60;99.90
3232;DHT22;1628;48.884;9.210;2022-10-26T06:44:50;14.60;99.90
3232;DHT22;1628;48.884;9.210;2022-10-26T06:47:21;14.60;99.90
3232;DHT22;1628;48.884;9.210;2022-10-26T06:50:00;14.70;99.90
3232;DHT22;1628;48.884;9.210;2022-10-26T06:52:32;14.70;99.90
3232;DHT22;1628;48.884;9.210;2022-10-26T06:55:01;14.70;99.90
3232;DHT22;1628;48.884;9.210;2022-10-26T06:57:33;14.80;99.90
3232;DHT22;1628;48.884;9.210;2022-10-26T07:00:03;14.90;99.90
3232;DHT22;1628;48.884;9.210;2022-10-26T07:02:31;14.90;99.90
3232;DHT22;1628;48.884;9.210;2022-10-26T07:04:59;14.90;99.90
3232;DHT22;1628;48.884;9.210;2022-10-26T07:07:27;15.00;99.90
3232;DHT22;1628;48.884;9.210;2022-10-26T07:09:54;15.00;99.90
3232;DHT22;1628;48.884;9.210;2022-10-26T07:12:21;15.00;99.90
3232;DHT22;1628;48.884;9.210;2022-10-26T07:14:47;15.10;99.90
3232;DHT22;1628;48.884;9.210;2022-10-26T07:17:14;15.10;99.90
3232;DHT22;1628;48.884;9.210;2022-10-26T07:19:41;15.20;99.90
3232;DHT22;1628;48.884;9.210;2022-10-26T07:22:10;15.20;99.90
3232;DHT22;1628;48.884;9.210;2022-10-26T07:24:38;15.20;99.90
3232;DHT22;1628;48.884;9.210;2022-10-26T07:27:05;15.20;99.90
3232;DHT22;1628;48.884;9.210;2022-10-26T07:29:31;15.30;99.90
3232;DHT22;1628;48.884;9.210;2022-10-26T07:31:59;15.30;99.90
3232;DHT22;1628;48.884;9.210;2022-10-26T07:34:26;15.30;99.90
3232;DHT22;1628;48.884;9.210;2022-10-26T07:36:53;15.30;99.90
3232;DHT22;1628;48.884;9.210;2022-10-26T07:39:20;15.30;99.90
3232;DHT22;1628;48.884;9.210;2022-10-26T07:41:47;15.30;99.90
3232;DHT22;1628;48.884;9.210;2022-10-26T07:44:14;15.40;99.90
3232;DHT22;1628;48.884;9.210;2022-10-26T07:46:41;15.40;99.90
3232;DHT22;1628;48.884;9.210;2022-10-26T07:49:07;15.40;99.90
3232;DHT22;1628;48.884;9.210;2022-10-26T07:51:34;15.40;99.90
3232;DHT22;1628;48.884;9.210;2022-10-26T07:54:01;15.30;99.90
3232;DHT22;1628;48.884;9.210;2022-10-26T07:56:29;15.40;99.90
3232;DHT22;1628;48.884;9.210;2022-10-26T07:58:56;15.30;99.90
3232;DHT22;1628;48.884;9.210;2022-10-26T08:01:23;15.30;99.90
3232;DHT22;1628;48.884;9.210;2022-10-26T08:03:51;15.40;99.90
3232;DHT22;1628;48.884;9.210;2022-10-26T08:06:17;15.40;99.90
3232;DHT22;1628;48.884;9.210;2022-10-26T08:08:44;15.50;99.90
3232;DHT22;1628;48.884;9.210;2022-10-26T08:11:12;15.60;99.90
3232;DHT22;1628;48.884;9.210;2022-10-26T08:13:40;15.60;99.90
3232;DHT22;1628;48.884;9.210;2022-10-26T08:16:07;15.70;99.90
3232;DHT22;1628;48.884;9.210;2022-10-26T08:18:33;15.80;99.90
3232;DHT22;1628;48.884;9.210;2022-10-26T08:21:01;15.80;99.90
3232;DHT22;1628;48.884;9.210;2022-10-26T08:23:28;15.90;99.90
3232;DHT22;1628;48.884;9.210;2022-10-26T08:25:57;16.00;99.90
3232;DHT22;1628;48.884;9.210;2022-10-26T08:28:24;16.10;99.90
3232;DHT22;1628;48.884;9.210;2022-10-26T08:30:52;16.20;99.90
3232;DHT22;1628;48.884;9.210;2022-10-26T08:33:19;16.30;99.90
3232;DHT22;1628;48.884;9.210;2022-10-26T08:35:46;16.50;99.90
3232;DHT22;1628;48.884;9.210;2022-10-26T08:38:12;16.70;99.90
3232;DHT22;1628;48.884;9.210;2022-10-26T08:40:40;16.80;99.90
3232;DHT22;1628;48.884;9.210;2022-10-26T08:43:14;17.00;99.90
3232;DHT22;1628;48.884;9.210;2022-10-26T08:45:45;17.10;99.90
3232;DHT22;1628;48.884;9.210;2022-10-26T08:48:16;17.20;99.90
3232;DHT22;1628;48.884;9.210;2022-10-26T08:50:47;17.20;99.90
3232;DHT22;1628;48.884;9.210;2022-10-26T08:53:20;17.30;99.90
3232;DHT22;1628;48.884;9.210;2022-10-26T08:55:51;17.30;99.90
3232;DHT22;1628;48.884;9.210;2022-10-26T08:58:21;17.40;99.90
3232;DHT22;1628;48.884;9.210;2022-10-26T09:00:50;17.50;99.90
3232;DHT22;1628;48.884;9.210;2022-10-26T09:03:18;17.50;99.90
3232;DHT22;1628;48.884;9.210;2022-10-26T09:06:12;17.50;99.90
3232;DHT22;1628;48.884;9.210;2022-10-26T09:08:52;17.60;99.90
3232;DHT22;1628;48.884;9.210;2022-10-26T09:11:30;17.70;99.90
3232;DHT22;1628;48.884;9.210;2022-10-26T09:14:04;17.90;99.90
3232;DHT22;1628;48.884;9.210;2022-10-26T09:16:39;18.00;99.90
3232;DHT22;1628;48.884;9.210;2022-10-26T09:19:26;18.40;99.90
3232;DHT22;1628;48.884;9.210;2022-10-26T09:22:00;18.70;99.90
3232;DHT22;1628;48.884;9.210;2022-10-26T09:24:31;19.10;99.90
3232;DHT22;1628;48.884;9.210;2022-10-26T09:27:05;19.50;99.90
3232;DHT22;1628;48.884;9.210;2022-10-26T09:29:39;19.80;99.90
3232;DHT22;1628;48.884;9.210;2022-10-26T09:32:12;20.10;99.90
3232;DHT22;1628;48.884;9.210;2022-10-26T09:34:45;20.40;99.90
3232;DHT22;1628;48.884;9.210;2022-10-26T09:37:17;20.80;99.90
3232;DHT22;1628;48.884;9.210;2022-10-26T09:39:53;21.50;99.90
3232;DHT22;1628;48.884;9.210;2022-10-26T09:42:24;22.20;99.90
3232;DHT22;1628;48.884;9.210;2022-10-26T09:44:56;23.20;99.90
3232;DHT22;1628;48.884;9.210;2022-10-26T09:47:32;24.20;99.90
3232;DHT22;1628;48.884;9.210;2022-10-26T09:50:12;25.20;99.90
3232;DHT22;1628;48.884;9.210;2022-10-26T09:52:40;26.50;99.90
3232;DHT22;1628;48.884;9.210;2022-10-26T09:55:09;27.90;99.90
3232;DHT22;1628;48.884;9.210;2022-10-26T09:57:38;29.00;99.90
3232;DHT22;1628;48.884;9.210;2022-10-26T10:00:10;29.80;96.30
3232;DHT22;1628;48.884;9.210;2022-10-26T10:02:38;30.20;93.80
3232;DHT22;1628;48.884;9.210;2022-10-26T10:05:27;30.00;92.70
3232;DHT22;1628;48.884;9.210;2022-10-26T10:08:14;29.40;93.30
3232;DHT22;1628;48.884;9.210;2022-10-26T10:10:57;28.30;95.90
3232;DHT22;1628;48.884;9.210;2022-10-26T10:13:25;27.60;94.40
3232;DHT22;1628;48.884;9.210;2022-10-26T10:15:53;26.90;94.80
3232;DHT22;1628;48.884;9.210;2022-10-26T10:18:22;26.20;96.80
3232;DHT22;1628;48.884;9.210;2022-10-26T10:20:53;25.60;98.00
3232;DHT22;1628;48.884;9.210;2022-10-26T10:23:29;25.00;99.30
3232;DHT22;1628;48.884;9.210;2022-10-26T10:26:01;24.30;99.90
3232;DHT22;1628;48.884;9.210;2022-10-26T10:28:28;23.90;99.90
3232;DHT22;1628;48.884;9.210;2022-10-26T10:30:57;23.60;99.90
3232;DHT22;1628;48.884;9.210;2022-10-26T10:33:32;23.40;99.90
3232;DHT22;1628;48.884;9.210;2022-10-26T10:36:02;23.20;99.90
3232;DHT22;1628;48.884;9.210;2022-10-26T10:38:38;23.00;99.90
3232;DHT22;1628;48.884;9.210;2022-10-26T10:41:15;22.90;99.90
3232;DHT22;1628;48.884;9.210;2022-10-26T10:43:44;22.80;99.90
3232;DHT22;1628;48.884;9.210;2022-10-26T10:46:17;22.80;99.90
3232;DHT22;1628;48.884;9.210;2022-10-26T10:48:46;22.80;99.90
3232;DHT22;1628;48.884;9.210;2022-10-26T10:51:19;22.80;99.90
3232;DHT22;1628;48.884;9.210;2022-10-26T10:53:49;22.70;99.90
3232;DHT22;1628;48.884;9.210;2022-10-26T10:56:32;22.80;99.90
3232;DHT22;1628;48.884;9.210;2022-10-26T10:59:14;23.10;99.90
3232;DHT22;1628;48.884;9.210;2022-10-26T11:01:49;23.20;99.90
3232;DHT22;1628;48.884;9.210;2022-10-26T11:04:43;23.40;99.90
3232;DHT22;1628;48.884;9.210;2022-10-26T11:07:14;23.70;99.90
3232;DHT22;1628;48.884;9.210;2022-10-26T11:09:45;23.80;99.90
3232;DHT22;1628;48.884;9.210;2022-10-26T11:12:14;23.90;99.90
3232;DHT22;1628;48.884;9.210;2022-10-26T11:14:44;24.00;99.90
3232;DHT22;1628;48.884;9.210;2022-10-26T11:17:17;24.10;99.90
3232;DHT22;1628;48.884;9.210;2022-10-26T11:19:50;24.30;99.90
3232;DHT22;1628;48.884;9.210;2022-10-26T11:22:24;24.50;99.90
3232;DHT22;1628;48.884;9.210;2022-10-26T11:24:55;24.60;99.90
3232;DHT22;1628;48.884;9.210;2022-10-26T11:27:28;24.60;99.90
3232;DHT22;1628;48.884;9.210;2022-10-26T11:30:00;24.60;99.90
3232;DHT22;1628;48.884;9.210;2022-10-26T11:32:31;24.60;99.90
3232;DHT22;1628;48.884;9.210;2022-10-26T11:35:04;24.60;99.90
3232;DHT22;1628;48.884;9.210;2022-10-26T11:37:43;24.60;99.90
3232;DHT22;1628;48.884;9.210;2022-10-26T11:40:18;24.60;99.90
3232;DHT22;1628;48.884;9.210;2022-10-26T11:42:50;24.60;99.90
3232;DHT22;1628;48.884;9.210;2022-10-26T11:45:22;24.70;99.90
3232;DHT22;1628;48.884;9.210;2022-10-26T11:47:51;24.70;99.90
3232;DHT22;1628;48.884;9.210;2022-10-26T11:50:21;24.70;99.90
3232;DHT22;1628;48.884;9.210;2022-10-26T11:52:53;24.60;99.90
3232;DHT22;1628;48.884;9.210;2022-10-26T11:55:22;24.50;99.90
3232;DHT22;1628;48.884;9.210;2022-10-26T11:57:49;24.40;99.90
3232;DHT22;1628;48.884;9.210;2022-10-26T12:00:18;24.30;99.90
3232;DHT22;1628;48.884;9.210;2022-10-26T12:02:47;24.30;99.90
3232;DHT22;1628;48.884;9.210;2022-10-26T12:05:23;24.30;99.90
3232;DHT22;1628;48.884;9.210;2022-10-26T12:07:55;24.30;99.90
3232;DHT22;1628;48.884;9.210;2022-10-26T12:10:28;24.30;99.90
3232;DHT22;1628;48.884;9.210;2022-10-26T12:13:00;24.10;99.90
3232;DHT22;1628;48.884;9.210;2022-10-26T12:15:33;24.10;99.90
3232;DHT22;1628;48.884;9.210;2022-10-26T12:18:10;23.90;99.90
3232;DHT22;1628;48.884;9.210;2022-10-26T12:20:54;23.90;99.90
3232;DHT22;1628;48.884;9.210;2022-10-26T12:23:29;23.80;99.90
3232;DHT22;1628;48.884;9.210;2022-10-26T12:29:33;23.80;99.90
3232;DHT22;1628;48.884;9.210;2022-10-26T12:32:01;23.70;99.90
3232;DHT22;1628;48.884;9.210;2022-10-26T12:34:57;23.80;99.90
3232;DHT22;1628;48.884;9.210;2022-10-26T12:37:34;23.70;99.90
3232;DHT22;1628;48.884;9.210;2022-10-26T12:40:40;23.70;99.90
3232;DHT22;1628;48.884;9.210;2022-10-26T12:43:35;23.70;99.90
3232;DHT22;1628;48.884;9.210;2022-10-26T12:52:38;23.60;99.90
3232;DHT22;1628;48.884;9.210;2022-10-26T12:55:49;23.60;99.90
3232;DHT22;1628;48.884;9.210;2022-10-26T12:58:40;23.40;99.90
3232;DHT22;1628;48.884;9.210;2022-10-26T13:07:43;23.40;99.90
3232;DHT22;1628;48.884;9.210;2022-10-26T13:10:19;23.40;99.90
3232;DHT22;1628;48.884;9.210;2022-10-26T13:12:51;23.50;99.90
3232;DHT22;1628;48.884;9.210;2022-10-26T13:15:23;23.60;99.90
3232;DHT22;1628;48.884;9.210;2022-10-26T13:17:57;23.50;99.90
3232;DHT22;1628;48.884;9.210;2022-10-26T13:20:25;23.50;99.90
3232;DHT22;1628;48.884;9.210;2022-10-26T13:22:52;23.40;99.90
3232;DHT22;1628;48.884;9.210;2022-10-26T13:25:22;23.40;99.90
3232;DHT22;1628;48.884;9.210;2022-10-26T13:28:00;23.40;99.90
3232;DHT22;1628;48.884;9.210;2022-10-26T13:30:46;23.50;99.90
3232;DHT22;1628;48.884;9.210;2022-10-26T13:33:19;23.50;99.90
3232;DHT22;1628;48.884;9.210;2022-10-26T13:35:47;23.50;99.90
3232;DHT22;1628;48.884;9.210;2022-10-26T13:38:18;23.70;99.90
3232;DHT22;1628;48.884;9.210;2022-10-26T13:40:46;23.80;99.90
3232;DHT22;1628;48.884;9.210;2022-10-26T13:43:18;23.90;99.90
3232;DHT22;1628;48.884;9.210;2022-10-26T13:45:53;23.80;99.90
3232;DHT22;1628;48.884;9.210;2022-10-26T13:48:27;23.80;99.90
3232;DHT22;1628;48.884;9.210;2022-10-26T13:50:58;23.70;99.90
3232;DHT22;1628;48.884;9.210;2022-10-26T13:53:36;23.50;99.90
3232;DHT22;1628;48.884;9.210;2022-10-26T13:56:12;23.30;99.90
3232;DHT22;1628;48.884;9.210;2022-10-26T13:58:46;23.20;99.90
3232;DHT22;1628;48.884;9.210;2022-10-26T14:01:15;23.10;99.90
3232;DHT22;1628;48.884;9.210;2022-10-26T14:03:46;23.00;99.90
3232;DHT22;1628;48.884;9.210;2022-10-26T14:06:17;23.00;99.90
3232;DHT22;1628;48.884;9.210;2022-10-26T14:08:45;23.00;99.90
3232;DHT22;1628;48.884;9.210;2022-10-26T14:11:16;22.90;99.90
3232;DHT22;1628;48.884;9.210;2022-10-26T14:13:46;22.90;99.90
3232;DHT22;1628;48.884;9.210;2022-10-26T14:16:16;22.80;99.90
3232;DHT22;1628;48.884;9.210;2022-10-26T14:18:45;22.70;99.90
3232;DHT22;1628;48.884;9.210;2022-10-26T14:21:15;22.60;99.90
3232;DHT22;1628;48.884;9.210;2022-10-26T14:23:47;22.50;99.90
3232;DHT22;1628;48.884;9.210;2022-10-26T14:26:19;22.30;99.90
3232;DHT22;1628;48.884;9.210;2022-10-26T14:28:49;22.20;99.90
3232;DHT22;1628;48.884;9.210;2022-10-26T14:31:22;22.10;99.90
3232;DHT22;1628;48.884;9.210;2022-10-26T14:33:50;22.00;99.90
3232;DHT22;1628;48.884;9.210;2022-10-26T14:36:19;21.80;99.90
3232;DHT22;1628;48.884;9.210;2022-10-26T14:38:49;21.60;99.90
3232;DHT22;1628;48.884;9.210;2022-10-26T14:41:18;21.60;99.90
3232;DHT22;1628;48.884;9.210;2022-10-26T14:43:45;21.60;99.90
3232;DHT22;1628;48.884;9.210;2022-10-26T14:46:16;21.60;99.90
3232;DHT22;1628;48.884;9.210;2022-10-26T14:48:51;21.60;99.90
3232;DHT22;1628;48.884;9.210;2022-10-26T14:51:20;21.70;99.90
3232;DHT22;1628;48.884;9.210;2022-10-26T14:53:48;21.80;99.90
3232;DHT22;1628;48.884;9.210;2022-10-26T14:56:24;21.90;99.90
3232;DHT22;1628;48.884;9.210;2022-10-26T14:58:53;21.90;99.90
3232;DHT22;1628;48.884;9.210;2022-10-26T15:01:27;22.00;99.90
3232;DHT22;1628;48.884;9.210;2022-10-26T15:03:55;22.00;99.90
3232;DHT22;1628;48.884;9.210;2022-10-26T15:06:39;22.00;99.90
3232;DHT22;1628;48.884;9.210;2022-10-26T15:09:29;22.00;99.90
3232;DHT22;1628;48.884;9.210;2022-10-26T15:11:56;22.00;99.90
3232;DHT22;1628;48.884;9.210;2022-10-26T15:14:27;22.00;99.90
3232;DHT22;1628;48.884;9.210;2022-10-26T15:16:55;22.00;99.90
3232;DHT22;1628;48.884;9.210;2022-10-26T15:19:23;21.90;99.90
3232;DHT22;1628;48.884;9.210;2022-10-26T15:21:52;21.90;99.90
3232;DHT22;1628;48.884;9.210;2022-10-26T15:24:32;21.80;99.90
3232;DHT22;1628;48.884;9.210;2022-10-26T15:27:01;21.80;99.90
3232;DHT22;1628;48.884;9.210;2022-10-26T15:29:37;21.70;99.90
3232;DHT22;1628;48.884;9.210;2022-10-26T15:32:16;21.60;99.90
3232;DHT22;1628;48.884;9.210;2022-10-26T15:34:47;21.50;99.90
3232;DHT22;1628;48.884;9.210;2022-10-26T15:37:14;21.30;99.90
3232;DHT22;1628;48.884;9.210;2022-10-26T15:39:42;21.30;99.90
3232;DHT22;1628;48.884;9.210;2022-10-26T15:42:11;21.20;99.90
3232;DHT22;1628;48.884;9.210;2022-10-26T15:44:39;21.10;99.90
3232;DHT22;1628;48.884;9.210;2022-10-26T15:47:16;21.00;99.90
3232;DHT22;1628;48.884;9.210;2022-10-26T15:49:43;20.90;99.90
3232;DHT22;1628;48.884;9.210;2022-10-26T15:52:10;20.80;99.90
3232;DHT22;1628;48.884;9.210;2022-10-26T15:54:36;20.70;99.90
3232;DHT22;1628;48.884;9.210;2022-10-26T15:57:04;20.60;99.90
3232;DHT22;1628;48.884;9.210;2022-10-26T15:59:32;20.50;99.90
3232;DHT22;1628;48.884;9.210;2022-10-26T16:01:58;20.50;99.90
3232;DHT22;1628;48.884;9.210;2022-10-26T16:04:25;20.40;99.90
3232;DHT22;1628;48.884;9.210;2022-10-26T16:06:52;20.40;99.90
3232;DHT22;1628;48.884;9.210;2022-10-26T16:09:23;20.30;99.90
3232;DHT22;1628;48.884;9.210;2022-10-26T16:11:49;20.20;99.90
3232;DHT22;1628;48.884;9.210;2022-10-26T16:14:17;20.10;99.90
3232;DHT22;1628;48.884;9.210;2022-10-26T16:16:44;20.00;99.90
3232;DHT22;1628;48.884;9.210;2022-10-26T16:19:11;19.90;99.90
3232;DHT22;1628;48.884;9.210;2022-10-26T16:21:37;19.70;99.90
3232;DHT22;1628;48.884;9.210;2022-10-26T16:24:06;19.60;99.90
3232;DHT22;1628;48.884;9.210;2022-10-26T16:26:33;19.50;99.90
3232;DHT22;1628;48.884;9.210;2022-10-26T16:28:59;19.30;99.90
3232;DHT22;1628;48.884;9.210;2022-10-26T16:31:27;19.20;99.90
3232;DHT22;1628;48.884;9.210;2022-10-26T16:33:54;19.10;99.90
3232;DHT22;1628;48.884;9.210;2022-10-26T16:36:21;19.00;99.90
3232;DHT22;1628;48.884;9.210;2022-10-26T16:38:47;18.90;99.90
3232;DHT22;1628;48.884;9.210;2022-10-26T16:41:14;18.80;99.90
3232;DHT22;1628;48.884;9.210;2022-10-26T16:43:43;18.70;99.90
3232;DHT22;1628;48.884;9.210;2022-10-26T16:46:13;18.70;99.90
3232;DHT22;1628;48.884;9.210;2022-10-26T16:48:42;18.60;99.90
3232;DHT22;1628;48.884;9.210;2022-10-26T16:51:11;18.50;99.90
3232;DHT22;1628;48.884;9.210;2022-10-26T16:53:38;18.40;99.90
3232;DHT22;1628;48.884;9.210;2022-10-26T16:56:07;18.40;99.90
3232;DHT22;1628;48.884;9.210;2022-10-26T16:58:34;18.30;99.90
3232;DHT22;1628;48.884;9.210;2022-10-26T17:01:01;18.20;99.90
3232;DHT22;1628;48.884;9.210;2022-10-26T17:03:27;18.10;99.90
3232;DHT22;1628;48.884;9.210;2022-10-26T17:05:57;18.00;99.90
3232;DHT22;1628;48.884;9.210;2022-10-26T17:08:24;18.00;99.90
3232;DHT22;1628;48.884;9.210;2022-10-26T17:10:51;17.90;99.90
3232;DHT22;1628;48.884;9.210;2022-10-26T17:13:18;17.90;99.90
3232;DHT22;1628;48.884;9.210;2022-10-26T17:15:45;17.90;99.90
3232;DHT22;1628;48.884;9.210;2022-10-26T17:18:12;17.80;99.90
3232;DHT22;1628;48.884;9.210;2022-10-26T17:20:39;17.80;99.90
3232;DHT22;1628;48.884;9.210;2022-10-26T17:23:07;17.70;99.90
3232;DHT22;1628;48.884;9.210;2022-10-26T17:25:34;17.70;99.90
3232;DHT22;1628;48.884;9.210;2022-10-26T17:28:03;17.70;99.90
3232;DHT22;1628;48.884;9.210;2022-10-26T17:30:29;17.70;99.90
3232;DHT22;1628;48.884;9.210;2022-10-26T17:32:56;17.60;99.90
3232;DHT22;1628;48.884;9.210;2022-10-26T17:35:23;17.60;99.90
3232;DHT22;1628;48.884;9.210;2022-10-26T17:37:50;17.70;99.90
3232;DHT22;1628;48.884;9.210;2022-10-26T17:40:18;17.70;99.90
3232;DHT22;1628;48.884;9.210;2022-10-26T17:42:45;17.70;99.90
3232;DHT22;1628;48.884;9.210;2022-10-26T17:45:11;17.70;99.90
3232;DHT22;1628;48.884;9.210;2022-10-26T17:47:38;17.70;99.90
3232;DHT22;1628;48.884;9.210;2022-10-26T17:50:06;17.70;99.90
3232;DHT22;1628;48.884;9.210;2022-10-26T17:52:32;17.70;99.90
3232;DHT22;1628;48.884;9.210;2022-10-26T17:54:59;17.70;99.90
3232;DHT22;1628;48.884;9.210;2022-10-26T17:57:27;17.70;99.90
3232;DHT22;1628;48.884;9.210;2022-10-26T17:59:54;17.70;99.90
3232;DHT22;1628;48.884;9.210;2022-10-26T18:02:20;17.60;99.90
3232;DHT22;1628;48.884;9.210;2022-10-26T18:04:47;17.60;99.90
3232;DHT22;1628;48.884;9.210;2022-10-26T18:07:13;17.60;99.90
3232;DHT22;1628;48.884;9.210;2022-10-26T18:09:40;17.60;99.90
3232;DHT22;1628;48.884;9.210;2022-10-26T18:12:07;17.60;99.90
3232;DHT22;1628;48.884;9.210;2022-10-26T18:14:36;17.50;99.90
3232;DHT22;1628;48.884;9.210;2022-10-26T18:17:03;17.50;99.90
3232;DHT22;1628;48.884;9.210;2022-10-26T18:19:30;17.40;99.90
3232;DHT22;1628;48.884;9.210;2022-10-26T18:21:56;17.40;99.90
3232;DHT22;1628;48.884;9.210;2022-10-26T18:24:24;17.30;99.90
3232;DHT22;1628;48.884;9.210;2022-10-26T18:26:50;17.20;99.90
3232;DHT22;1628;48.884;9.210;2022-10-26T18:29:17;17.20;99.90
3232;DHT22;1628;48.884;9.210;2022-10-26T18:31:45;17.20;99.90
3232;DHT22;1628;48.884;9.210;2022-10-26T18:34:12;17.20;99.90
3232;DHT22;1628;48.884;9.210;2022-10-26T18:36:38;17.20;99.90
3232;DHT22;1628;48.884;9.210;2022-10-26T18:39:05;17.20;99.90
3232;DHT22;1628;48.884;9.210;2022-10-26T18:41:32;17.10;99.90
3232;DHT22;1628;48.884;9.210;2022-10-26T18:43:59;17.10;99.90
3232;DHT22;1628;48.884;9.210;2022-10-26T18:46:27;17.10;99.90
3232;DHT22;1628;48.884;9.210;2022-10-26T18:48:57;17.10;99.90
3232;DHT22;1628;48.884;9.210;2022-10-26T18:51:28;17.00;99.90
3232;DHT22;1628;48.884;9.210;2022-10-26T18:53:55;17.00;99.90
3232;DHT22;1628;48.884;9.210;2022-10-26T18:56:23;16.90;99.90
3232;DHT22;1628;48.884;9.210;2022-10-26T18:58:51;16.90;99.90
3232;DHT22;1628;48.884;9.210;2022-10-26T19:01:20;16.90;99.90
3232;DHT22;1628;48.884;9.210;2022-10-26T19:03:51;16.90;99.90
3232;DHT22;1628;48.884;9.210;2022-10-26T19:06:21;16.80;99.90
3232;DHT22;1628;48.884;9.210;2022-10-26T19:08:49;16.80;99.90
3232;DHT22;1628;48.884;9.210;2022-10-26T19:11:17;16.80;99.90
3232;DHT22;1628;48.884;9.210;2022-10-26T19:13:44;16.80;99.90
3232;DHT22;1628;48.884;9.210;2022-10-26T19:16:12;16.70;99.90
3232;DHT22;1628;48.884;9.210;2022-10-26T19:18:39;16.70;99.90
3232;DHT22;1628;48.884;9.210;2022-10-26T19:21:07;16.60;99.90
3232;DHT22;1628;48.884;9.210;2022-10-26T19:23:38;16.60;99.90
3232;DHT22;1628;48.884;9.210;2022-10-26T19:26:06;16.60;99.90
3232;DHT22;1628;48.884;9.210;2022-10-26T19:28:33;16.60;99.90
3232;DHT22;1628;48.884;9.210;2022-10-26T19:31:03;16.60;99.90
3232;DHT22;1628;48.884;9.210;2022-10-26T19:33:30;16.50;99.90
3232;DHT22;1628;48.884;9.210;2022-10-26T19:35:59;16.50;99.90
3232;DHT22;1628;48.884;9.210;2022-10-26T19:38:26;16.50;99.90
3232;DHT22;1628;48.884;9.210;2022-10-26T19:40:57;16.50;99.90
3232;DHT22;1628;48.884;9.210;2022-10-26T19:43:24;16.40;99.90
3232;DHT22;1628;48.884;9.210;2022-10-26T19:45:51;16.40;99.90
3232;DHT22;1628;48.884;9.210;2022-10-26T19:48:18;16.30;99.90
3232;DHT22;1628;48.884;9.210;2022-10-26T19:50:46;16.30;99.90
3232;DHT22;1628;48.884;9.210;2022-10-26T19:53:13;16.30;99.90
3232;DHT22;1628;48.884;9.210;2022-10-26T19:55:41;16.30;99.90
3232;DHT22;1628;48.884;9.210;2022-10-26T19:58:09;16.20;99.90
3232;DHT22;1628;48.884;9.210;2022-10-26T20:00:36;16.10;99.90
3232;DHT22;1628;48.884;9.210;2022-10-26T20:03:03;16.10;99.90
3232;DHT22;1628;48.884;9.210;2022-10-26T20:05:30;16.00;99.90
3232;DHT22;1628;48.884;9.210;2022-10-26T20:07:57;16.00;99.90
3232;DHT22;1628;48.884;9.210;2022-10-26T20:10:24;16.00;99.90
3232;DHT22;1628;48.884;9.210;2022-10-26T20:12:51;16.00;99.90
3232;DHT22;1628;48.884;9.210;2022-10-26T20:15:19;16.00;99.90
3232;DHT22;1628;48.884;9.210;2022-10-26T20:17:45;16.00;99.90
3232;DHT22;1628;48.884;9.210;2022-10-26T20:20:12;15.90;99.90
3232;DHT22;1628;48.884;9.210;2022-10-26T20:22:38;15.90;99.90
3232;DHT22;1628;48.884;9.210;2022-10-26T20:25:06;15.80;99.90
3232;DHT22;1628;48.884;9.210;2022-10-26T20:27:32;15.80;99.90
3232;DHT22;1628;48.884;9.210;2022-10-26T20:30:01;15.80;99.90
3232;DHT22;1628;48.884;9.210;2022-10-26T20:32:29;15.80;99.90
3232;DHT22;1628;48.884;9.210;2022-10-26T20:34:55;15.70;99.90
3232;DHT22;1628;48.884;9.210;2022-10-26T20:37:23;15.60;99.90